Flight Track Log - Related Links

Times and Time Zones

All times are in EDT time to prevent confusion due to time zone crossing. See the DAL3678 flight status page for this flight to view local times or setup timezone preferences in your user account.

Time Position Orientation Groundspeed Altitude Reporting Facility
EDT Latitude Longitude Course Direction KTS MPH feet Rate Location/Type
Sun 02:43:20 PM 33.6500 -84.3500 270° West 198 228 3,000  Level Atlanta TRACON
Sun 02:44:20 PM 33.7000 -84.2833 48° Northeast 275 316 4,600 2,250 Climbing Atlanta TRACON
Sun 02:45:20 PM 33.7667 -84.2833 360° North 288 331 7,500 2,168 Climbing Atlanta TRACON
Sun 02:47:31 PM 33.8103 -84.4589 287° West 278 320 11,500 1,571 Climbing Atlanta Center
Sun 02:48:00 PM 33.8001 -84.4552 270° West  Level FlightAware Approximate
Sun 02:48:31 PM 33.8078 -84.5764 269° West 324 373 12,500  Level Atlanta Center
Sun 02:49:31 PM 33.8092 -84.7064 271° West 352 405 13,800 750 Climbing Atlanta Center
Sun 02:50:31 PM 33.8064 -84.8289 268° West 364 419 14,000 100 Climbing Atlanta Center
Sun 02:51:31 PM 33.8014 -84.9489 267° West 369 425 14,000  Level Atlanta Center
Sun 02:52:30 PM 33.7878 -85.0711 262° West 369 425 14,000  Level Atlanta Center
Sun 02:53:31 PM 33.7700 -85.1908 260° West 369 425 14,000  Level Atlanta Center
Sun 02:54:31 PM 33.7836 -85.3083 278° West 369 425 14,000  Level Atlanta Center
Sun 02:55:31 PM 33.8031 -85.4289 281° West 364 419 14,000  Level Atlanta Center
Sun 02:56:31 PM 33.8247 -85.5467 283° West 364 419 14,000  Level Atlanta Center
Sun 02:57:31 PM 33.8422 -85.6544 281° West 369 425 14,000  Level Atlanta Center
Sun 02:58:31 PM 33.8781 -85.7703 290° West 369 425 14,000  Level Atlanta Center
Sun 02:59:31 PM 33.9142 -85.8761 292° West 355 409 14,000 -50 Level Atlanta Center
Sun 03:00:31 PM 33.9900 -85.9606 317° Northwest 350 403 13,900 -50 Descending Atlanta Center
Sun 03:01:31 PM 34.0808 -86.0328 327° Northwest 365 420 13,900 -550 Level Atlanta Center
Sun 03:04:20 PM 34.3319 -86.2400 326° Northwest 379 436 11,800 -786 Descending Memphis Center
Sun 03:05:20 PM 34.4133 -86.3064 326° Northwest 367 422 10,900 -700 Descending Memphis Center
Sun 03:06:20 PM 34.4864 -86.3708 324° Northwest 355 409 10,400 -1,050 Descending Memphis Center
Sun 03:07:20 PM 34.5528 -86.4233 327° Northwest 314 361 8,800 -1,800 Descending Memphis Center
Sun 03:08:20 PM 34.6169 -86.4783 325° Northwest 292 336 6,800 -2,000 Descending Memphis Center
Sun 03:09:20 PM 34.6794 -86.5361 323° Northwest 286 329 4,800 -1,600 Descending Memphis Center
Sun 03:10:20 PM 34.7250 -86.5947 313° West 267 307 3,600 -1,250 Descending Memphis Center
Sun 03:11:20 PM 34.7272 -86.6706 272° West 216 249 2,300 -850 Descending Memphis Center
Sun 03:12:20 PM 34.7144 -86.7342 256° West 208 239 1,900 -400 Descending Memphis Center

Login

Don't have an account? Register now (free) for customized features, flight alerts, and more!